createdAt,value
2018-04-14T00:00:35.091Z,20.98
2018-04-14T00:01:35.046Z,20.91
2018-04-14T00:02:34.916Z,20.89
2018-04-14T00:03:34.912Z,20.95
2018-04-14T00:04:35.084Z,20.89
2018-04-14T00:05:35.028Z,20.88
2018-04-14T00:06:35.272Z,20.96
2018-04-14T00:07:35.112Z,20.89
2018-04-14T00:08:35.056Z,20.88
2018-04-14T00:09:35.100Z,20.96
2018-04-14T00:10:35.086Z,20.84
2018-04-14T00:11:35.017Z,20.83
2018-04-14T00:12:35.063Z,20.92
2018-04-14T00:13:35.025Z,20.82
2018-04-14T00:14:35.009Z,20.82
2018-04-14T00:15:35.145Z,20.9
2018-04-14T00:16:35.001Z,20.82
2018-04-14T00:17:34.993Z,20.83
2018-04-14T00:18:34.995Z,20.92
2018-04-14T00:19:35.096Z,20.84
2018-04-14T00:20:35.257Z,20.82
2018-04-14T00:21:35.046Z,20.89
2018-04-14T00:22:34.937Z,20.83
2018-04-14T00:23:35.095Z,20.83
2018-04-14T00:24:34.951Z,20.93
2018-04-14T00:25:35.092Z,20.8
2018-04-14T00:26:35.083Z,20.79
2018-04-14T00:27:35.026Z,20.89
2018-04-14T00:28:35.196Z,20.83
2018-04-14T00:29:35.181Z,20.83
2018-04-14T00:30:34.920Z,20.9
2018-04-14T00:31:35.109Z,20.8
2018-04-14T00:32:35.199Z,20.82
2018-04-14T00:33:35.150Z,20.9
2018-04-14T00:34:35.073Z,20.78
2018-04-14T00:35:35.164Z,20.77
2018-04-14T00:36:35.310Z,20.87
2018-04-14T00:37:35.045Z,20.78
2018-04-14T00:38:35.001Z,20.77
2018-04-14T00:39:35.054Z,20.86
2018-04-14T00:40:35.022Z,20.76
2018-04-14T00:41:35.036Z,20.78
2018-04-14T00:42:34.998Z,20.84
2018-04-14T00:43:35.128Z,20.79
2018-04-14T00:44:34.979Z,20.77
2018-04-14T00:45:34.997Z,20.86
2018-04-14T00:46:34.943Z,20.76
2018-04-14T00:47:35.035Z,20.76
2018-04-14T00:48:34.980Z,20.8
2018-04-14T00:49:35.156Z,20.77
2018-04-14T00:50:35.336Z,20.77
2018-04-14T00:51:35.017Z,20.86
2018-04-14T00:52:34.978Z,20.77
2018-04-14T00:53:35.127Z,20.77
2018-04-14T00:54:37.131Z,20.81
2018-04-14T00:55:35.161Z,20.74
2018-04-14T00:56:35.265Z,20.75
2018-04-14T00:57:35.081Z,20.83
2018-04-14T00:58:35.135Z,20.73
2018-04-14T00:59:35.076Z,20.71
2018-04-14T01:00:35.039Z,20.79
2018-04-14T01:01:35.052Z,20.73
2018-04-14T01:02:34.971Z,20.71
2018-04-14T01:03:35.101Z,20.79
2018-04-14T01:04:34.970Z,20.74
2018-04-14T01:05:34.874Z,20.72
2018-04-14T01:06:35.097Z,20.78
2018-04-14T01:07:35.060Z,20.71
2018-04-14T01:08:34.924Z,20.71
2018-04-14T01:09:34.959Z,20.77
2018-04-14T01:10:35.144Z,20.69
2018-04-14T01:11:35.084Z,20.71
2018-04-14T01:12:34.881Z,20.77
2018-04-14T01:13:35.045Z,20.7
2018-04-14T01:14:34.994Z,20.65
2018-04-14T01:15:35.117Z,20.74
2018-04-14T01:16:35.104Z,20.68
2018-04-14T01:17:34.994Z,20.68
2018-04-14T01:18:34.986Z,20.77
2018-04-14T01:19:35.148Z,20.67
2018-04-14T01:20:35.091Z,20.68
2018-04-14T01:21:34.911Z,20.74
2018-04-14T01:22:34.965Z,20.65
2018-04-14T01:23:35.046Z,20.65
2018-04-14T01:24:34.929Z,20.7
2018-04-14T01:25:35.092Z,20.66
2018-04-14T01:26:35.147Z,20.67
2018-04-14T01:27:35.316Z,20.74
2018-04-14T01:28:34.990Z,20.65
2018-04-14T01:29:35.022Z,20.65
2018-04-14T01:30:34.892Z,20.75
2018-04-14T01:31:35.007Z,20.65
2018-04-14T01:32:35.115Z,20.65
2018-04-14T01:33:34.864Z,20.72
2018-04-14T01:34:35.065Z,20.65
2018-04-14T01:35:35.071Z,20.65
2018-04-14T01:36:34.991Z,20.73
2018-04-14T01:37:35.390Z,20.64
2018-04-14T01:38:35.015Z,20.58
2018-04-14T01:39:35.040Z,20.7
2018-04-14T01:40:34.954Z,20.64
2018-04-14T01:41:34.924Z,20.61
2018-04-14T01:42:35.038Z,20.69
2018-04-14T01:43:34.943Z,20.61
2018-04-14T01:44:35.109Z,20.64
2018-04-14T01:45:35.150Z,20.69
2018-04-14T01:46:34.983Z,20.63
2018-04-14T01:47:35.113Z,20.61
2018-04-14T01:48:35.101Z,20.69
2018-04-14T01:49:35.153Z,20.62
2018-04-14T01:50:34.956Z,20.63
2018-04-14T01:51:35.042Z,20.72
2018-04-14T01:52:35.134Z,20.62
2018-04-14T01:53:34.945Z,20.6
2018-04-14T01:54:34.893Z,20.65
2018-04-14T01:55:34.916Z,20.6
2018-04-14T01:56:35.129Z,20.59
2018-04-14T01:57:34.965Z,20.66
2018-04-14T01:58:35.002Z,20.56
2018-04-14T01:59:34.984Z,20.59
2018-04-14T02:00:35.000Z,20.68
2018-04-14T02:01:34.915Z,20.61
2018-04-14T02:02:34.927Z,20.59
2018-04-14T02:03:34.916Z,20.68
2018-04-14T02:04:34.873Z,20.58
2018-04-14T02:05:35.134Z,20.57
2018-04-14T02:06:35.103Z,20.64
2018-04-14T02:07:34.951Z,20.59
2018-04-14T02:08:35.050Z,20.57
2018-04-14T02:09:35.033Z,20.62
2018-04-14T02:10:35.052Z,20.53
2018-04-14T02:11:34.946Z,20.55
2018-04-14T02:12:35.054Z,20.65
2018-04-14T02:13:35.049Z,20.56
2018-04-14T02:14:35.149Z,20.56
2018-04-14T02:15:35.056Z,20.65
2018-04-14T02:16:35.142Z,20.57
2018-04-14T02:17:34.969Z,20.56
2018-04-14T02:18:34.902Z,20.66
2018-04-14T02:19:35.044Z,20.56
2018-04-14T02:20:35.151Z,20.54
2018-04-14T02:21:35.091Z,20.62
2018-04-14T02:22:35.000Z,20.56
2018-04-14T02:23:35.041Z,20.54
2018-04-14T02:24:35.133Z,20.64
2018-04-14T02:25:34.892Z,20.56
2018-04-14T02:26:35.041Z,20.54
2018-04-14T02:27:35.070Z,20.63
2018-04-14T02:28:35.113Z,20.51
2018-04-14T02:29:35.063Z,20.5
2018-04-14T02:30:34.885Z,20.62
2018-04-14T02:31:35.395Z,20.54
2018-04-14T02:32:35.452Z,20.51
2018-04-14T02:33:35.084Z,20.59
2018-04-14T02:34:35.138Z,20.52
2018-04-14T02:35:34.991Z,20.49
2018-04-14T02:36:35.043Z,20.59
2018-04-14T02:37:35.029Z,20.49
2018-04-14T02:38:35.143Z,20.49
2018-04-14T02:39:35.066Z,20.54
2018-04-14T02:40:34.894Z,20.48
2018-04-14T02:41:35.109Z,20.48
2018-04-14T02:42:35.194Z,20.57
2018-04-14T02:43:35.047Z,20.47
2018-04-14T02:44:34.912Z,20.48
2018-04-14T02:45:35.021Z,20.59
2018-04-14T02:46:35.163Z,20.51
2018-04-14T02:47:35.082Z,20.49
2018-04-14T02:48:34.935Z,20.55
2018-04-14T02:49:35.054Z,20.49
2018-04-14T02:50:35.115Z,20.46
2018-04-14T02:51:35.070Z,20.53
2018-04-14T02:52:35.084Z,20.46
2018-04-14T02:53:35.173Z,20.46
2018-04-14T02:54:35.150Z,20.56
2018-04-14T02:55:35.144Z,20.46
2018-04-14T02:56:35.070Z,20.46
2018-04-14T02:57:35.096Z,20.55
2018-04-14T02:58:35.238Z,20.47
2018-04-14T02:59:35.105Z,20.45
2018-04-14T03:00:34.879Z,20.54
2018-04-14T03:01:35.174Z,20.45
2018-04-14T03:02:34.914Z,20.43
2018-04-14T03:03:35.031Z,20.5
2018-04-14T03:04:34.891Z,20.45
2018-04-14T03:05:34.946Z,20.43
2018-04-14T03:06:35.027Z,20.53
2018-04-14T03:07:35.014Z,20.43
2018-04-14T03:08:35.058Z,20.42
2018-04-14T03:09:35.091Z,20.53
2018-04-14T03:10:34.992Z,20.44
2018-04-14T03:11:35.172Z,20.43
2018-04-14T03:12:35.150Z,20.5
2018-04-14T03:13:34.934Z,20.41
2018-04-14T03:14:34.896Z,20.41
2018-04-14T03:15:34.971Z,20.52
2018-04-14T03:16:35.064Z,20.43
2018-04-14T03:17:34.928Z,20.41
2018-04-14T03:18:35.235Z,20.49
2018-04-14T03:19:35.071Z,20.41
2018-04-14T03:20:35.206Z,20.41
2018-04-14T03:21:35.128Z,20.51
2018-04-14T03:22:34.920Z,20.41
2018-04-14T03:23:34.974Z,20.37
2018-04-14T03:24:35.123Z,20.47
2018-04-14T03:25:35.136Z,20.4
2018-04-14T03:26:34.886Z,20.4
2018-04-14T03:27:35.075Z,20.47
2018-04-14T03:28:34.904Z,20.36
2018-04-14T03:29:35.028Z,20.38
2018-04-14T03:30:35.012Z,20.49
2018-04-14T03:31:35.125Z,20.41
2018-04-14T03:32:34.972Z,20.4
2018-04-14T03:33:35.059Z,20.45
2018-04-14T03:34:34.951Z,20.35
2018-04-14T03:35:34.937Z,20.37
2018-04-14T03:36:34.913Z,20.46
2018-04-14T03:37:34.962Z,20.38
2018-04-14T03:38:34.994Z,20.35
2018-04-14T03:39:34.954Z,20.45
2018-04-14T03:40:35.371Z,20.37
2018-04-14T03:41:35.039Z,20.37
2018-04-14T03:42:34.847Z,20.46
2018-04-14T03:43:34.972Z,20.36
2018-04-14T03:44:34.943Z,20.35
2018-04-14T03:45:34.920Z,20.44
2018-04-14T03:46:34.976Z,20.37
2018-04-14T03:47:34.987Z,20.35
2018-04-14T03:48:35.173Z,20.45
2018-04-14T03:49:35.059Z,20.39
2018-04-14T03:50:34.872Z,20.37
2018-04-14T03:51:34.941Z,20.42
2018-04-14T03:52:34.942Z,20.37
2018-04-14T03:53:35.020Z,20.36
2018-04-14T03:54:34.941Z,20.46
2018-04-14T03:55:35.131Z,20.41
2018-04-14T03:56:34.879Z,20.41
2018-04-14T03:57:34.983Z,20.49
2018-04-14T03:58:35.033Z,20.42
2018-04-14T03:59:34.951Z,20.41
2018-04-14T04:00:35.012Z,20.51
2018-04-14T04:01:35.050Z,20.43
2018-04-14T04:02:34.982Z,20.42
2018-04-14T04:03:35.067Z,20.53
2018-04-14T04:04:34.931Z,20.45
2018-04-14T04:05:34.990Z,20.44
2018-04-14T04:06:35.093Z,20.54
2018-04-14T04:07:35.047Z,20.46
2018-04-14T04:08:34.947Z,20.47
2018-04-14T04:09:35.017Z,20.56
2018-04-14T04:10:34.860Z,20.51
2018-04-14T04:11:35.118Z,20.53
2018-04-14T04:12:34.960Z,20.63
2018-04-14T04:13:35.002Z,20.56
2018-04-14T04:14:34.926Z,20.6
2018-04-14T04:15:34.980Z,20.68
2018-04-14T04:16:35.039Z,20.63
2018-04-14T04:17:35.045Z,20.65
2018-04-14T04:18:35.020Z,20.71
2018-04-14T04:19:34.845Z,20.68
2018-04-14T04:20:34.997Z,20.7
2018-04-14T04:21:34.932Z,20.77
2018-04-14T04:22:35.014Z,20.72
2018-04-14T04:23:35.020Z,20.76
2018-04-14T04:24:36.359Z,20.83
2018-04-14T04:25:34.923Z,20.77
2018-04-14T04:26:35.008Z,20.79
2018-04-14T04:27:35.176Z,20.88
2018-04-14T04:28:35.067Z,20.82
2018-04-14T04:29:34.966Z,20.84
2018-04-14T04:30:34.968Z,20.9
2018-04-14T04:31:34.825Z,20.87
2018-04-14T04:32:35.011Z,20.89
2018-04-14T04:33:34.978Z,20.95
2018-04-14T04:34:34.979Z,20.91
2018-04-14T04:35:35.111Z,20.94
2018-04-14T04:36:35.026Z,21.01
2018-04-14T04:37:35.225Z,20.95
2018-04-14T04:38:34.837Z,21
2018-04-14T04:39:35.060Z,21.05
2018-04-14T04:40:34.990Z,20.99
2018-04-14T04:41:34.935Z,21.03
2018-04-14T04:42:34.943Z,21.08
2018-04-14T04:43:34.991Z,21.04
2018-04-14T04:44:35.061Z,21.07
2018-04-14T04:45:34.879Z,21.13
2018-04-14T04:46:35.157Z,21.07
2018-04-14T04:47:34.965Z,21.1
2018-04-14T04:48:35.019Z,21.16
2018-04-14T04:49:34.970Z,21.13
2018-04-14T04:50:34.927Z,21.15
2018-04-14T04:51:35.043Z,21.21
2018-04-14T04:52:34.813Z,21.16
2018-04-14T04:53:35.125Z,21.19
2018-04-14T04:54:34.883Z,21.24
2018-04-14T04:55:34.935Z,21.19
2018-04-14T04:56:35.166Z,21.23
2018-04-14T04:57:35.087Z,21.27
2018-04-14T04:58:35.548Z,21.23
2018-04-14T04:59:35.012Z,21.25
2018-04-14T05:00:34.876Z,21.32
2018-04-14T05:01:35.064Z,21.26
2018-04-14T05:02:34.933Z,21.29
2018-04-14T05:03:34.967Z,21.35
2018-04-14T05:04:35.020Z,21.3
2018-04-14T05:05:35.085Z,21.31
2018-04-14T05:06:34.848Z,21.36
2018-04-14T05:07:34.948Z,21.31
2018-04-14T05:08:34.961Z,21.35
2018-04-14T05:09:34.921Z,21.41
2018-04-14T05:10:35.009Z,21.35
2018-04-14T05:11:34.985Z,21.36
2018-04-14T05:12:34.992Z,21.42
2018-04-14T05:13:35.046Z,21.36
2018-04-14T05:14:34.848Z,21.38
2018-04-14T05:15:34.935Z,21.42
2018-04-14T05:16:34.892Z,21.38
2018-04-14T05:17:34.831Z,21.41
2018-04-14T05:18:34.899Z,21.46
2018-04-14T05:19:34.843Z,21.41
2018-04-14T05:20:34.868Z,21.42
2018-04-14T05:21:34.867Z,21.47
2018-04-14T05:22:34.943Z,21.42
2018-04-14T05:23:35.133Z,21.46
2018-04-14T05:24:35.020Z,21.51
2018-04-14T05:25:34.993Z,21.46
2018-04-14T05:26:35.129Z,21.48
2018-04-14T05:27:35.007Z,21.53
2018-04-14T05:28:34.811Z,21.48
2018-04-14T05:29:35.117Z,21.51
2018-04-14T05:30:34.977Z,21.55
2018-04-14T05:31:34.916Z,21.52
2018-04-14T05:32:35.098Z,21.53
2018-04-14T05:33:34.934Z,21.58
2018-04-14T05:34:34.889Z,21.53
2018-04-14T05:35:34.895Z,21.56
2018-04-14T05:36:34.894Z,21.6
2018-04-14T05:37:35.513Z,21.56
2018-04-14T05:38:35.080Z,21.58
2018-04-14T05:39:34.811Z,21.63
2018-04-14T05:40:35.131Z,21.58
2018-04-14T05:41:34.920Z,21.6
2018-04-14T05:42:35.047Z,21.64
2018-04-14T05:43:35.122Z,21.6
2018-04-14T05:44:35.064Z,21.61
2018-04-14T05:45:34.920Z,21.67
2018-04-14T05:46:34.952Z,21.61
2018-04-14T05:47:35.062Z,21.63
2018-04-14T05:48:34.841Z,21.68
2018-04-14T05:49:35.069Z,21.63
2018-04-14T05:50:35.059Z,21.65
2018-04-14T05:51:35.052Z,21.71
2018-04-14T05:52:35.332Z,21.65
2018-04-14T05:53:35.018Z,21.68
2018-04-14T05:54:35.175Z,21.72
2018-04-14T05:55:34.938Z,21.67
2018-04-14T05:56:34.982Z,21.69
2018-04-14T05:57:34.862Z,21.75
2018-04-14T05:58:34.937Z,21.69
2018-04-14T05:59:34.989Z,21.71
2018-04-14T06:00:35.024Z,21.76
2018-04-14T06:01:34.974Z,21.71
2018-04-14T06:02:34.809Z,21.73
2018-04-14T06:03:35.182Z,21.77
2018-04-14T06:04:34.934Z,21.71
2018-04-14T06:05:35.061Z,21.73
2018-04-14T06:06:34.860Z,21.78
2018-04-14T06:07:34.971Z,21.72
2018-04-14T06:08:34.975Z,21.74
2018-04-14T06:09:34.885Z,21.77
2018-04-14T06:10:35.049Z,21.72
2018-04-14T06:11:35.143Z,21.74
2018-04-14T06:12:35.032Z,21.78
2018-04-14T06:13:34.946Z,21.72
2018-04-14T06:14:35.067Z,21.76
2018-04-14T06:15:34.908Z,21.8
2018-04-14T06:16:34.824Z,21.74
2018-04-14T06:17:34.977Z,21.75
2018-04-14T06:18:35.044Z,21.79
2018-04-14T06:19:34.845Z,21.73
2018-04-14T06:20:34.929Z,21.75
2018-04-14T06:21:34.970Z,21.78
2018-04-14T06:22:34.998Z,21.72
2018-04-14T06:23:35.007Z,21.73
2018-04-14T06:24:35.004Z,21.78
2018-04-14T06:25:34.832Z,21.71
2018-04-14T06:26:34.901Z,21.72
2018-04-14T06:27:34.993Z,21.77
2018-04-14T06:28:35.023Z,21.71
2018-04-14T06:29:34.985Z,21.71
2018-04-14T06:30:34.863Z,21.77
2018-04-14T06:31:34.936Z,21.7
2018-04-14T06:32:35.325Z,21.71
2018-04-14T06:33:34.961Z,21.75
2018-04-14T06:34:34.952Z,21.68
2018-04-14T06:35:35.035Z,21.69
2018-04-14T06:36:35.007Z,21.74
2018-04-14T06:37:34.873Z,21.66
2018-04-14T06:38:34.891Z,21.67
2018-04-14T06:39:34.963Z,21.73
2018-04-14T06:40:34.822Z,21.65
2018-04-14T06:41:34.931Z,21.66
2018-04-14T06:42:34.926Z,21.72
2018-04-14T06:43:35.198Z,21.64
2018-04-14T06:44:34.935Z,21.64
2018-04-14T06:45:34.949Z,21.71
2018-04-14T06:46:34.969Z,21.63
2018-04-14T06:47:34.846Z,21.62
2018-04-14T06:48:34.911Z,21.69
2018-04-14T06:49:34.932Z,21.6
2018-04-14T06:50:35.033Z,21.6
2018-04-14T06:51:34.894Z,21.67
2018-04-14T06:52:34.783Z,21.59
2018-04-14T06:53:35.067Z,21.59
2018-04-14T06:54:34.944Z,21.64
2018-04-14T06:55:35.070Z,21.56
2018-04-14T06:56:34.934Z,21.55
2018-04-14T06:57:35.037Z,21.63
2018-04-14T06:58:34.797Z,21.55
2018-04-14T06:59:34.966Z,21.54
2018-04-14T07:00:35.183Z,21.61
2018-04-14T07:01:34.956Z,21.54
2018-04-14T07:02:34.944Z,21.53
2018-04-14T07:03:35.026Z,21.6
2018-04-14T07:04:35.134Z,21.52
2018-04-14T07:05:34.897Z,21.5
2018-04-14T07:06:35.042Z,21.59
2018-04-14T07:07:34.905Z,21.51
2018-04-14T07:08:35.024Z,21.49
2018-04-14T07:09:34.836Z,21.56
2018-04-14T07:10:34.920Z,21.48
2018-04-14T07:11:34.896Z,21.47
2018-04-14T07:12:34.814Z,21.54
2018-04-14T07:13:34.902Z,21.46
2018-04-14T07:14:35.058Z,21.46
2018-04-14T07:15:34.895Z,21.54
2018-04-14T07:16:34.858Z,21.43
2018-04-14T07:17:34.965Z,21.43
2018-04-14T07:18:34.899Z,21.51
2018-04-14T07:19:34.793Z,21.42
2018-04-14T07:20:35.087Z,21.42
2018-04-14T07:21:34.901Z,21.49
2018-04-14T07:22:34.873Z,21.41
2018-04-14T07:23:34.978Z,21.41
2018-04-14T07:24:34.885Z,21.48
2018-04-14T07:25:35.165Z,21.4
2018-04-14T07:26:34.818Z,21.39
2018-04-14T07:27:34.902Z,21.46
2018-04-14T07:28:34.887Z,21.38
2018-04-14T07:29:35.043Z,21.37
2018-04-14T07:30:34.901Z,21.43
2018-04-14T07:31:34.931Z,21.36
2018-04-14T07:32:34.940Z,21.34
2018-04-14T07:33:34.942Z,21.42
2018-04-14T07:34:34.795Z,21.34
2018-04-14T07:35:34.830Z,21.33
2018-04-14T07:36:35.006Z,21.4
2018-04-14T07:37:37.298Z,21.32
2018-04-14T07:38:34.999Z,21.3
2018-04-14T07:39:34.953Z,21.39
2018-04-14T07:40:35.070Z,21.31
2018-04-14T07:41:35.038Z,21.3
2018-04-14T07:42:34.895Z,21.36
2018-04-14T07:43:34.909Z,21.29
2018-04-14T07:44:34.785Z,21.29
2018-04-14T07:45:34.896Z,21.33
2018-04-14T07:46:34.921Z,21.26
2018-04-14T07:47:34.884Z,21.27
2018-04-14T07:48:34.965Z,21.35
2018-04-14T07:49:35.012Z,21.27
2018-04-14T07:50:34.952Z,21.26
2018-04-14T07:51:34.974Z,21.33
2018-04-14T07:52:35.158Z,21.25
2018-04-14T07:53:34.932Z,21.24
2018-04-14T07:54:35.035Z,21.33
2018-04-14T07:55:34.868Z,21.24
2018-04-14T07:56:34.876Z,21.23
2018-04-14T07:57:34.990Z,21.3
2018-04-14T07:58:34.857Z,21.22
2018-04-14T07:59:34.959Z,21.21
2018-04-14T08:00:35.010Z,21.3
2018-04-14T08:01:34.871Z,21.21
2018-04-14T08:02:34.984Z,21.2
2018-04-14T08:03:34.775Z,21.26
2018-04-14T08:04:34.854Z,21.19
2018-04-14T08:05:34.777Z,21.18
2018-04-14T08:06:34.903Z,21.25
2018-04-14T08:07:34.945Z,21.18
2018-04-14T08:08:35.040Z,21.17
2018-04-14T08:09:34.828Z,21.24
2018-04-14T08:10:34.844Z,21.15
2018-04-14T08:11:35.190Z,21.15
2018-04-14T08:12:35.047Z,21.24
2018-04-14T08:13:34.966Z,21.14
2018-04-14T08:14:34.929Z,21.13
2018-04-14T08:15:34.855Z,21.21
2018-04-14T08:16:34.968Z,21.13
2018-04-14T08:17:34.812Z,21.13
2018-04-14T08:18:34.779Z,21.19
2018-04-14T08:19:34.784Z,21.12
2018-04-14T08:20:34.861Z,21.1
2018-04-14T08:21:35.017Z,21.18
2018-04-14T08:22:35.002Z,21.1
2018-04-14T08:23:34.824Z,21.08
2018-04-14T08:24:34.984Z,21.16
2018-04-14T08:25:34.786Z,21.07
2018-04-14T08:26:35.089Z,21.06
2018-04-14T08:27:35.073Z,21.14
2018-04-14T08:28:34.889Z,21.07
2018-04-14T08:29:34.881Z,21.06
2018-04-14T08:30:34.805Z,21.13
2018-04-14T08:31:34.989Z,21.05
2018-04-14T08:32:34.822Z,21.04
2018-04-14T08:33:34.752Z,21.1
2018-04-14T08:34:34.891Z,21.03
2018-04-14T08:35:35.065Z,21.03
2018-04-14T08:36:34.797Z,21.09
2018-04-14T08:37:34.909Z,21.01
2018-04-14T08:38:34.987Z,21.02
2018-04-14T08:39:34.971Z,21.09
2018-04-14T08:40:34.831Z,21.01
2018-04-14T08:41:34.990Z,21.01
2018-04-14T08:42:34.848Z,21.08
2018-04-14T08:43:35.059Z,21
2018-04-14T08:44:35.029Z,20.99
2018-04-14T08:45:34.829Z,21.06
2018-04-14T08:46:34.872Z,20.99
2018-04-14T08:47:35.608Z,20.98
2018-04-14T08:48:34.883Z,21.07
2018-04-14T08:49:34.834Z,20.97
2018-04-14T08:50:34.878Z,20.96
2018-04-14T08:51:34.960Z,21.06
2018-04-14T08:52:35.006Z,20.97
2018-04-14T08:53:34.847Z,20.97
2018-04-14T08:54:34.983Z,21.04
2018-04-14T08:55:34.906Z,20.95
2018-04-14T08:56:34.820Z,20.95
2018-04-14T08:57:34.927Z,21.01
2018-04-14T08:58:34.832Z,20.94
2018-04-14T08:59:34.823Z,20.93
2018-04-14T09:00:34.898Z,21.01
2018-04-14T09:01:34.826Z,20.93
2018-04-14T09:02:34.987Z,20.93
2018-04-14T09:03:34.980Z,20.99
2018-04-14T09:04:34.888Z,20.91
2018-04-14T09:05:35.005Z,20.92
2018-04-14T09:06:34.897Z,20.9
2018-04-14T09:07:34.862Z,20.77
2018-04-14T09:08:35.004Z,20.84
2018-04-14T09:09:35.016Z,21.01
2018-04-14T09:10:34.793Z,20.92
2018-04-14T09:11:34.863Z,20.92
2018-04-14T09:12:34.917Z,21.01
2018-04-14T09:13:34.816Z,20.86
2018-04-14T09:14:34.941Z,20.89
2018-04-14T09:15:34.785Z,20.97
2018-04-14T09:16:34.875Z,20.91
2018-04-14T09:17:34.976Z,20.94
2018-04-14T09:18:34.781Z,20.99
2018-04-14T09:19:34.809Z,20.89
2018-04-14T09:20:34.972Z,20.91
2018-04-14T09:21:34.820Z,21
2018-04-14T09:22:34.793Z,20.89
2018-04-14T09:23:35.024Z,20.95
2018-04-14T09:24:34.808Z,21.03
2018-04-14T09:25:34.857Z,20.95
2018-04-14T09:26:34.904Z,21.05
2018-04-14T09:27:34.854Z,21.05
2018-04-14T09:28:34.999Z,20.88
2018-04-14T09:29:34.755Z,20.96
2018-04-14T09:30:34.879Z,21.09
2018-04-14T09:31:34.863Z,20.99
2018-04-14T09:32:34.916Z,20.94
2018-04-14T09:33:35.008Z,21.04
2018-04-14T09:34:35.007Z,20.97
2018-04-14T09:35:34.849Z,20.98
2018-04-14T09:36:35.015Z,21.06
2018-04-14T09:37:34.824Z,20.94
2018-04-14T09:38:34.893Z,20.95
2018-04-14T09:39:34.832Z,21.03
2018-04-14T09:40:34.810Z,20.89
2018-04-14T09:41:34.939Z,20.89
2018-04-14T09:42:34.936Z,21.01
2018-04-14T09:43:34.834Z,20.93
2018-04-14T09:44:34.908Z,20.91
2018-04-14T09:45:34.986Z,21.04
2018-04-14T09:46:34.888Z,20.92
2018-04-14T09:47:34.971Z,20.95
2018-04-14T09:48:34.929Z,21.05
2018-04-14T09:49:34.881Z,20.92
2018-04-14T09:50:34.898Z,20.93
2018-04-14T09:51:34.796Z,20.97
2018-04-14T09:52:34.829Z,20.89
2018-04-14T09:53:34.816Z,20.89
2018-04-14T09:54:36.242Z,20.95
2018-04-14T09:55:34.821Z,20.87
2018-04-14T09:56:34.940Z,20.87
2018-04-14T09:57:34.780Z,21.01
2018-04-14T09:58:34.990Z,20.92
2018-04-14T09:59:34.880Z,20.93
2018-04-14T10:00:34.802Z,21.02
2018-04-14T10:01:34.836Z,20.91
2018-04-14T10:02:34.889Z,20.89
2018-04-14T10:03:35.074Z,20.96
2018-04-14T10:04:34.920Z,20.86
2018-04-14T10:05:34.896Z,20.86
2018-04-14T10:06:35.065Z,20.96
2018-04-14T10:07:34.873Z,20.89
2018-04-14T10:08:34.940Z,20.83
2018-04-14T10:09:35.019Z,20.9
2018-04-14T10:10:35.166Z,20.83
2018-04-14T10:11:34.750Z,20.84
2018-04-14T10:12:34.885Z,20.91
2018-04-14T10:13:35.127Z,20.84
2018-04-14T10:14:34.795Z,20.82
2018-04-14T10:15:35.031Z,20.91
2018-04-14T10:16:34.899Z,20.81
2018-04-14T10:17:34.880Z,20.82
2018-04-14T10:18:34.833Z,20.9
2018-04-14T10:19:34.868Z,20.8
2018-04-14T10:20:34.936Z,20.81
2018-04-14T10:21:35.002Z,20.88
2018-04-14T10:22:34.769Z,20.78
2018-04-14T10:23:34.939Z,20.77
2018-04-14T10:24:34.818Z,20.89
2018-04-14T10:25:34.820Z,20.77
2018-04-14T10:26:34.771Z,20.76
2018-04-14T10:27:34.854Z,20.89
2018-04-14T10:28:35.084Z,20.8
2018-04-14T10:29:34.971Z,20.78
2018-04-14T10:30:34.808Z,20.85
2018-04-14T10:31:34.920Z,20.77
2018-04-14T10:32:34.805Z,20.77
2018-04-14T10:33:34.792Z,20.87
2018-04-14T10:34:34.873Z,20.78
2018-04-14T10:35:34.972Z,20.77
2018-04-14T10:36:34.712Z,20.82
2018-04-14T10:37:34.904Z,20.72
2018-04-14T10:38:35.028Z,20.73
2018-04-14T10:39:34.749Z,20.81
2018-04-14T10:40:34.817Z,20.75
2018-04-14T10:41:34.978Z,20.74
2018-04-14T10:42:34.767Z,20.81
2018-04-14T10:43:35.016Z,20.73
2018-04-14T10:44:34.808Z,20.7
2018-04-14T10:45:34.879Z,20.79
2018-04-14T10:46:35.015Z,20.71
2018-04-14T10:47:34.931Z,20.72
2018-04-14T10:48:34.926Z,20.81
2018-04-14T10:49:34.992Z,20.72
2018-04-14T10:50:34.956Z,20.71
2018-04-14T10:51:34.806Z,20.79
2018-04-14T10:52:34.984Z,20.71
2018-04-14T10:53:34.837Z,20.7
2018-04-14T10:54:35.004Z,20.77
2018-04-14T10:55:34.820Z,20.71
2018-04-14T10:56:34.830Z,20.7
2018-04-14T10:57:34.850Z,20.78
2018-04-14T10:58:34.898Z,20.68
2018-04-14T10:59:34.978Z,20.67
2018-04-14T11:00:34.797Z,20.77
2018-04-14T11:01:35.023Z,20.69
2018-04-14T11:02:34.945Z,20.67
2018-04-14T11:03:34.754Z,20.66
2018-04-14T11:04:35.011Z,20.61
2018-04-14T11:05:35.021Z,20.63
2018-04-14T11:06:34.810Z,20.71
2018-04-14T11:07:34.821Z,20.61
2018-04-14T11:08:34.909Z,20.68
2018-04-14T11:09:35.025Z,20.77
2018-04-14T11:10:34.774Z,20.68
2018-04-14T11:11:34.932Z,20.69
2018-04-14T11:12:34.817Z,20.71
2018-04-14T11:13:34.949Z,20.65
2018-04-14T11:14:35.109Z,20.68
2018-04-14T11:15:34.744Z,20.75
2018-04-14T11:16:34.797Z,20.67
2018-04-14T11:17:34.886Z,20.69
2018-04-14T11:18:34.920Z,20.77
2018-04-14T11:19:34.870Z,20.7
2018-04-14T11:20:35.215Z,20.71
2018-04-14T11:21:34.814Z,20.79
2018-04-14T11:22:34.819Z,20.76
2018-04-14T11:23:34.872Z,20.8
2018-04-14T11:24:35.016Z,20.84
2018-04-14T11:25:34.966Z,20.69
2018-04-14T11:26:34.815Z,20.72
2018-04-14T11:27:34.927Z,20.8
2018-04-14T11:28:34.964Z,20.7
2018-04-14T11:29:34.986Z,20.67
2018-04-14T11:30:34.949Z,20.73
2018-04-14T11:31:34.826Z,20.65
2018-04-14T11:32:34.816Z,20.64
2018-04-14T11:33:34.927Z,20.71
2018-04-14T11:34:34.775Z,20.65
2018-04-14T11:35:34.757Z,20.64
2018-04-14T11:36:34.721Z,20.71
2018-04-14T11:37:34.730Z,20.63
2018-04-14T11:38:34.726Z,20.64
2018-04-14T11:39:34.879Z,20.7
2018-04-14T11:40:34.869Z,20.63
2018-04-14T11:41:34.876Z,20.59
2018-04-14T11:42:34.846Z,20.68
2018-04-14T11:43:34.754Z,20.61
2018-04-14T11:44:34.986Z,20.62
2018-04-14T11:45:34.716Z,20.71
2018-04-14T11:46:34.742Z,20.6
2018-04-14T11:47:34.905Z,20.6
2018-04-14T11:48:34.916Z,20.67
2018-04-14T11:49:34.734Z,20.59
2018-04-14T11:50:34.872Z,20.6
2018-04-14T11:51:34.802Z,20.7
2018-04-14T11:52:34.815Z,20.71
2018-04-14T11:53:34.733Z,20.72
2018-04-14T11:54:34.869Z,20.77
2018-04-14T11:55:34.972Z,20.71
2018-04-14T11:56:34.729Z,20.69
2018-04-14T11:57:34.876Z,20.74
2018-04-14T11:58:34.888Z,20.67
2018-04-14T11:59:35.094Z,20.67
2018-04-14T12:00:34.748Z,20.74
2018-04-14T12:01:34.864Z,20.7
2018-04-14T12:02:34.920Z,20.68
2018-04-14T12:03:34.707Z,20.77
2018-04-14T12:04:34.954Z,20.69
2018-04-14T12:05:34.961Z,20.65
2018-04-14T12:06:34.852Z,20.75
2018-04-14T12:07:34.860Z,20.67
2018-04-14T12:08:34.936Z,20.66
2018-04-14T12:09:34.745Z,20.77
2018-04-14T12:10:34.826Z,20.66
2018-04-14T12:11:34.777Z,20.65
2018-04-14T12:12:34.851Z,20.74
2018-04-14T12:13:34.887Z,20.66
2018-04-14T12:14:36.953Z,20.62
2018-04-14T12:15:34.809Z,20.71
2018-04-14T12:16:34.971Z,20.63
2018-04-14T12:17:34.757Z,20.62
2018-04-14T12:18:35.236Z,20.72
2018-04-14T12:19:34.781Z,20.65
2018-04-14T12:20:34.783Z,20.64
2018-04-14T12:21:34.930Z,20.67
2018-04-14T12:22:34.730Z,20.61
2018-04-14T12:23:34.980Z,20.61
2018-04-14T12:24:34.837Z,20.71
2018-04-14T12:25:34.839Z,20.62
2018-04-14T12:26:34.819Z,20.61
2018-04-14T12:27:34.877Z,20.68
2018-04-14T12:28:34.727Z,20.61
2018-04-14T12:29:34.807Z,20.61
2018-04-14T12:30:34.948Z,20.69
2018-04-14T12:31:34.835Z,20.61
2018-04-14T12:32:34.728Z,20.6
2018-04-14T12:33:34.931Z,20.71
2018-04-14T12:34:35.829Z,20.61
2018-04-14T12:35:34.896Z,20.58
2018-04-14T12:36:34.948Z,20.67
2018-04-14T12:37:34.931Z,20.61
2018-04-14T12:38:34.703Z,20.59
2018-04-14T12:39:34.857Z,20.66
2018-04-14T12:40:34.961Z,20.59
2018-04-14T12:41:34.978Z,20.57
2018-04-14T12:42:34.893Z,20.63
2018-04-14T12:43:34.872Z,20.59
2018-04-14T12:44:34.732Z,20.57
2018-04-14T12:45:34.932Z,20.65
2018-04-14T12:46:34.710Z,20.58
2018-04-14T12:47:34.898Z,20.58
2018-04-14T12:48:34.855Z,20.65
2018-04-14T12:49:34.754Z,20.58
2018-04-14T12:50:34.826Z,20.57
2018-04-14T12:51:34.852Z,20.65
2018-04-14T12:52:34.840Z,20.58
2018-04-14T12:53:34.730Z,20.57
2018-04-14T12:54:34.877Z,20.66